sensor_id;sensor_type;location;lat;lon;timestamp;P1;durP1;ratioP1;P2;durP2;ratioP2
38693;SDS011;24447;43.460;25.744;2023-04-25T00:00:18;13.93;;;5.70;;
38693;SDS011;24447;43.460;25.744;2023-04-25T00:02:44;13.07;;;5.55;;
38693;SDS011;24447;43.460;25.744;2023-04-25T00:05:11;13.95;;;6.53;;
38693;SDS011;24447;43.460;25.744;2023-04-25T00:07:37;12.63;;;5.47;;
38693;SDS011;24447;43.460;25.744;2023-04-25T00:10:03;13.13;;;6.00;;
38693;SDS011;24447;43.460;25.744;2023-04-25T00:12:30;11.90;;;5.75;;
38693;SDS011;24447;43.460;25.744;2023-04-25T00:14:58;13.18;;;5.80;;
38693;SDS011;24447;43.460;25.744;2023-04-25T00:17:25;15.20;;;6.32;;
38693;SDS011;24447;43.460;25.744;2023-04-25T00:19:51;12.57;;;6.13;;
38693;SDS011;24447;43.460;25.744;2023-04-25T00:22:17;11.95;;;5.13;;
38693;SDS011;24447;43.460;25.744;2023-04-25T00:24:43;15.52;;;6.13;;
38693;SDS011;24447;43.460;25.744;2023-04-25T00:27:10;12.55;;;5.43;;
38693;SDS011;24447;43.460;25.744;2023-04-25T00:29:36;13.63;;;6.07;;
38693;SDS011;24447;43.460;25.744;2023-04-25T00:32:02;14.15;;;6.63;;
38693;SDS011;24447;43.460;25.744;2023-04-25T00:34:28;13.63;;;5.75;;
38693;SDS011;24447;43.460;25.744;2023-04-25T00:36:54;13.32;;;5.57;;
38693;SDS011;24447;43.460;25.744;2023-04-25T00:39:20;13.40;;;6.00;;
38693;SDS011;24447;43.460;25.744;2023-04-25T00:41:46;10.45;;;5.43;;
38693;SDS011;24447;43.460;25.744;2023-04-25T00:44:12;12.38;;;5.45;;
38693;SDS011;24447;43.460;25.744;2023-04-25T00:46:38;12.68;;;5.88;;
38693;SDS011;24447;43.460;25.744;2023-04-25T00:49:05;11.82;;;5.47;;
38693;SDS011;24447;43.460;25.744;2023-04-25T00:51:31;13.38;;;5.68;;
38693;SDS011;24447;43.460;25.744;2023-04-25T00:53:59;14.00;;;5.78;;
38693;SDS011;24447;43.460;25.744;2023-04-25T00:56:25;13.93;;;5.80;;
38693;SDS011;24447;43.460;25.744;2023-04-25T00:58:52;14.30;;;5.90;;
38693;SDS011;24447;43.460;25.744;2023-04-25T01:01:21;16.52;;;6.30;;
38693;SDS011;24447;43.460;25.744;2023-04-25T01:03:47;12.02;;;5.03;;
38693;SDS011;24447;43.460;25.744;2023-04-25T01:06:15;14.25;;;6.18;;
38693;SDS011;24447;43.460;25.744;2023-04-25T01:08:42;13.60;;;5.95;;
38693;SDS011;24447;43.460;25.744;2023-04-25T01:11:08;13.60;;;5.93;;
38693;SDS011;24447;43.460;25.744;2023-04-25T01:13:34;12.65;;;5.70;;
38693;SDS011;24447;43.460;25.744;2023-04-25T01:16:01;14.73;;;5.95;;
38693;SDS011;24447;43.460;25.744;2023-04-25T01:18:27;12.48;;;5.63;;
38693;SDS011;24447;43.460;25.744;2023-04-25T01:20:53;17.52;;;6.35;;
38693;SDS011;24447;43.460;25.744;2023-04-25T01:23:21;16.55;;;6.40;;
38693;SDS011;24447;43.460;25.744;2023-04-25T01:25:48;12.57;;;5.75;;
38693;SDS011;24447;43.460;25.744;2023-04-25T01:28:14;17.98;;;6.80;;
38693;SDS011;24447;43.460;25.744;2023-04-25T01:30:40;14.88;;;6.28;;
38693;SDS011;24447;43.460;25.744;2023-04-25T01:33:07;14.88;;;6.30;;
38693;SDS011;24447;43.460;25.744;2023-04-25T01:35:34;16.33;;;6.32;;
38693;SDS011;24447;43.460;25.744;2023-04-25T01:38:00;19.35;;;6.13;;
38693;SDS011;24447;43.460;25.744;2023-04-25T01:40:26;15.25;;;6.18;;
38693;SDS011;24447;43.460;25.744;2023-04-25T01:42:53;12.65;;;5.60;;
38693;SDS011;24447;43.460;25.744;2023-04-25T01:45:19;12.93;;;6.03;;
38693;SDS011;24447;43.460;25.744;2023-04-25T01:47:45;12.95;;;5.70;;
38693;SDS011;24447;43.460;25.744;2023-04-25T01:50:16;12.70;;;5.78;;
38693;SDS011;24447;43.460;25.744;2023-04-25T01:52:42;16.05;;;5.80;;
38693;SDS011;24447;43.460;25.744;2023-04-25T01:55:08;13.15;;;5.97;;
38693;SDS011;24447;43.460;25.744;2023-04-25T01:57:34;11.30;;;5.25;;
38693;SDS011;24447;43.460;25.744;2023-04-25T02:00:02;14.73;;;5.72;;
38693;SDS011;24447;43.460;25.744;2023-04-25T02:02:29;16.40;;;6.97;;
38693;SDS011;24447;43.460;25.744;2023-04-25T02:04:55;14.88;;;5.80;;
38693;SDS011;24447;43.460;25.744;2023-04-25T02:07:21;13.30;;;5.25;;
38693;SDS011;24447;43.460;25.744;2023-04-25T02:09:47;16.83;;;6.78;;
38693;SDS011;24447;43.460;25.744;2023-04-25T02:12:13;15.13;;;5.65;;
38693;SDS011;24447;43.460;25.744;2023-04-25T02:14:39;14.70;;;6.30;;
38693;SDS011;24447;43.460;25.744;2023-04-25T02:17:05;14.18;;;5.75;;
38693;SDS011;24447;43.460;25.744;2023-04-25T02:19:31;11.55;;;5.45;;
38693;SDS011;24447;43.460;25.744;2023-04-25T02:21:57;13.80;;;5.53;;
38693;SDS011;24447;43.460;25.744;2023-04-25T02:24:23;14.95;;;6.65;;
38693;SDS011;24447;43.460;25.744;2023-04-25T02:26:49;14.27;;;5.90;;
38693;SDS011;24447;43.460;25.744;2023-04-25T02:29:15;16.27;;;6.25;;
38693;SDS011;24447;43.460;25.744;2023-04-25T02:31:42;13.82;;;6.22;;
38693;SDS011;24447;43.460;25.744;2023-04-25T02:34:07;15.60;;;6.00;;
38693;SDS011;24447;43.460;25.744;2023-04-25T02:36:33;13.95;;;5.78;;
38693;SDS011;24447;43.460;25.744;2023-04-25T02:39:00;10.38;;;5.00;;
38693;SDS011;24447;43.460;25.744;2023-04-25T02:41:27;14.77;;;5.63;;
38693;SDS011;24447;43.460;25.744;2023-04-25T02:43:53;13.52;;;5.47;;
38693;SDS011;24447;43.460;25.744;2023-04-25T02:46:19;11.75;;;5.65;;
38693;SDS011;24447;43.460;25.744;2023-04-25T02:48:45;14.80;;;6.38;;
38693;SDS011;24447;43.460;25.744;2023-04-25T02:51:11;16.65;;;6.03;;
38693;SDS011;24447;43.460;25.744;2023-04-25T02:53:37;8.73;;;4.63;;
38693;SDS011;24447;43.460;25.744;2023-04-25T02:56:03;9.52;;;4.57;;
38693;SDS011;24447;43.460;25.744;2023-04-25T02:58:29;10.68;;;4.97;;
38693;SDS011;24447;43.460;25.744;2023-04-25T03:00:55;14.35;;;5.88;;
38693;SDS011;24447;43.460;25.744;2023-04-25T03:03:21;10.82;;;5.15;;
38693;SDS011;24447;43.460;25.744;2023-04-25T03:05:48;12.32;;;5.03;;
38693;SDS011;24447;43.460;25.744;2023-04-25T03:08:15;12.45;;;6.18;;
38693;SDS011;24447;43.460;25.744;2023-04-25T03:10:41;16.17;;;6.25;;
38693;SDS011;24447;43.460;25.744;2023-04-25T03:13:08;14.25;;;6.47;;
38693;SDS011;24447;43.460;25.744;2023-04-25T03:15:34;19.17;;;6.95;;
38693;SDS011;24447;43.460;25.744;2023-04-25T03:18:01;20.75;;;8.25;;
38693;SDS011;24447;43.460;25.744;2023-04-25T03:20:27;15.32;;;6.07;;
38693;SDS011;24447;43.460;25.744;2023-04-25T03:22:53;26.73;;;10.20;;
38693;SDS011;24447;43.460;25.744;2023-04-25T03:25:19;19.85;;;7.25;;
38693;SDS011;24447;43.460;25.744;2023-04-25T03:27:45;14.30;;;6.00;;
38693;SDS011;24447;43.460;25.744;2023-04-25T03:30:11;13.57;;;5.43;;
38693;SDS011;24447;43.460;25.744;2023-04-25T03:32:37;11.13;;;5.22;;
38693;SDS011;24447;43.460;25.744;2023-04-25T03:35:03;12.93;;;5.63;;
38693;SDS011;24447;43.460;25.744;2023-04-25T03:37:30;16.58;;;6.43;;
38693;SDS011;24447;43.460;25.744;2023-04-25T03:39:56;15.13;;;6.63;;
38693;SDS011;24447;43.460;25.744;2023-04-25T03:42:22;14.63;;;6.38;;
38693;SDS011;24447;43.460;25.744;2023-04-25T03:44:48;17.80;;;7.57;;
38693;SDS011;24447;43.460;25.744;2023-04-25T03:47:14;16.02;;;6.78;;
38693;SDS011;24447;43.460;25.744;2023-04-25T03:49:41;15.55;;;6.20;;
38693;SDS011;24447;43.460;25.744;2023-04-25T03:52:07;13.27;;;6.00;;
38693;SDS011;24447;43.460;25.744;2023-04-25T03:54:33;15.32;;;6.25;;
38693;SDS011;24447;43.460;25.744;2023-04-25T03:56:59;12.57;;;5.65;;
38693;SDS011;24447;43.460;25.744;2023-04-25T03:59:25;14.23;;;6.40;;
38693;SDS011;24447;43.460;25.744;2023-04-25T04:01:51;12.98;;;5.85;;
38693;SDS011;24447;43.460;25.744;2023-04-25T04:04:18;12.82;;;5.93;;
38693;SDS011;24447;43.460;25.744;2023-04-25T04:06:44;13.00;;;5.75;;
38693;SDS011;24447;43.460;25.744;2023-04-25T04:09:10;12.45;;;6.15;;
38693;SDS011;24447;43.460;25.744;2023-04-25T04:11:37;13.90;;;6.15;;
38693;SDS011;24447;43.460;25.744;2023-04-25T04:14:07;11.18;;;5.30;;
38693;SDS011;24447;43.460;25.744;2023-04-25T04:16:34;13.27;;;5.78;;
38693;SDS011;24447;43.460;25.744;2023-04-25T04:19:00;15.18;;;5.40;;
38693;SDS011;24447;43.460;25.744;2023-04-25T04:21:26;11.60;;;5.40;;
38693;SDS011;24447;43.460;25.744;2023-04-25T04:23:52;13.90;;;5.75;;
38693;SDS011;24447;43.460;25.744;2023-04-25T04:26:19;13.95;;;5.05;;
38693;SDS011;24447;43.460;25.744;2023-04-25T04:28:48;12.10;;;4.90;;
38693;SDS011;24447;43.460;25.744;2023-04-25T04:33:48;12.15;;;5.60;;
38693;SDS011;24447;43.460;25.744;2023-04-25T04:36:15;15.00;;;6.00;;
38693;SDS011;24447;43.460;25.744;2023-04-25T04:38:45;12.45;;;5.68;;
38693;SDS011;24447;43.460;25.744;2023-04-25T04:41:11;15.82;;;6.43;;
38693;SDS011;24447;43.460;25.744;2023-04-25T04:43:37;13.13;;;6.18;;
38693;SDS011;24447;43.460;25.744;2023-04-25T04:46:04;13.18;;;6.25;;
38693;SDS011;24447;43.460;25.744;2023-04-25T04:48:31;14.43;;;5.30;;
38693;SDS011;24447;43.460;25.744;2023-04-25T04:50:59;14.25;;;6.82;;
38693;SDS011;24447;43.460;25.744;2023-04-25T04:53:25;14.85;;;6.03;;
38693;SDS011;24447;43.460;25.744;2023-04-25T04:55:51;14.80;;;6.50;;
38693;SDS011;24447;43.460;25.744;2023-04-25T04:58:17;12.85;;;5.82;;
38693;SDS011;24447;43.460;25.744;2023-04-25T05:00:44;14.88;;;6.35;;
38693;SDS011;24447;43.460;25.744;2023-04-25T05:03:10;13.35;;;6.10;;
38693;SDS011;24447;43.460;25.744;2023-04-25T05:05:36;14.65;;;6.50;;
38693;SDS011;24447;43.460;25.744;2023-04-25T05:08:05;15.40;;;6.72;;
38693;SDS011;24447;43.460;25.744;2023-04-25T05:10:31;16.75;;;6.60;;
38693;SDS011;24447;43.460;25.744;2023-04-25T05:12:57;13.30;;;6.75;;
38693;SDS011;24447;43.460;25.744;2023-04-25T05:15:23;13.25;;;6.32;;
38693;SDS011;24447;43.460;25.744;2023-04-25T05:17:49;15.75;;;7.18;;
38693;SDS011;24447;43.460;25.744;2023-04-25T05:20:15;17.83;;;7.40;;
38693;SDS011;24447;43.460;25.744;2023-04-25T05:22:43;20.00;;;6.68;;
38693;SDS011;24447;43.460;25.744;2023-04-25T05:25:09;20.92;;;8.07;;
38693;SDS011;24447;43.460;25.744;2023-04-25T05:27:35;13.20;;;7.03;;
38693;SDS011;24447;43.460;25.744;2023-04-25T05:30:01;23.30;;;9.30;;
38693;SDS011;24447;43.460;25.744;2023-04-25T05:32:27;20.73;;;9.40;;
38693;SDS011;24447;43.460;25.744;2023-04-25T05:34:53;21.33;;;8.95;;
38693;SDS011;24447;43.460;25.744;2023-04-25T05:37:19;21.27;;;9.38;;
38693;SDS011;24447;43.460;25.744;2023-04-25T05:39:44;18.27;;;8.48;;
38693;SDS011;24447;43.460;25.744;2023-04-25T05:42:10;21.58;;;9.20;;
38693;SDS011;24447;43.460;25.744;2023-04-25T05:44:36;18.45;;;7.60;;
38693;SDS011;24447;43.460;25.744;2023-04-25T05:47:02;17.85;;;7.25;;
38693;SDS011;24447;43.460;25.744;2023-04-25T05:49:29;11.32;;;6.03;;
38693;SDS011;24447;43.460;25.744;2023-04-25T05:51:55;19.05;;;7.13;;
38693;SDS011;24447;43.460;25.744;2023-04-25T05:54:21;20.95;;;8.73;;
38693;SDS011;24447;43.460;25.744;2023-04-25T05:56:47;26.30;;;11.95;;
38693;SDS011;24447;43.460;25.744;2023-04-25T05:59:13;24.55;;;11.93;;
38693;SDS011;24447;43.460;25.744;2023-04-25T06:01:39;28.60;;;12.93;;
38693;SDS011;24447;43.460;25.744;2023-04-25T06:04:05;39.17;;;14.52;;
38693;SDS011;24447;43.460;25.744;2023-04-25T06:06:31;24.33;;;11.27;;
38693;SDS011;24447;43.460;25.744;2023-04-25T06:08:57;19.17;;;8.70;;
38693;SDS011;24447;43.460;25.744;2023-04-25T06:11:23;24.08;;;10.73;;
38693;SDS011;24447;43.460;25.744;2023-04-25T06:13:49;21.23;;;8.75;;
38693;SDS011;24447;43.460;25.744;2023-04-25T06:16:15;20.95;;;7.40;;
38693;SDS011;24447;43.460;25.744;2023-04-25T06:18:41;29.90;;;10.02;;
38693;SDS011;24447;43.460;25.744;2023-04-25T06:21:07;19.88;;;8.13;;
38693;SDS011;24447;43.460;25.744;2023-04-25T06:23:33;21.45;;;7.93;;
38693;SDS011;24447;43.460;25.744;2023-04-25T06:25:59;23.70;;;6.20;;
38693;SDS011;24447;43.460;25.744;2023-04-25T06:28:25;16.20;;;6.95;;
38693;SDS011;24447;43.460;25.744;2023-04-25T06:30:51;15.60;;;7.18;;
38693;SDS011;24447;43.460;25.744;2023-04-25T06:33:17;16.88;;;6.35;;
38693;SDS011;24447;43.460;25.744;2023-04-25T06:35:43;16.05;;;6.35;;
38693;SDS011;24447;43.460;25.744;2023-04-25T06:38:09;13.43;;;5.55;;
38693;SDS011;24447;43.460;25.744;2023-04-25T06:40:35;15.02;;;6.18;;
38693;SDS011;24447;43.460;25.744;2023-04-25T06:43:01;13.88;;;5.78;;
38693;SDS011;24447;43.460;25.744;2023-04-25T06:45:27;16.20;;;5.60;;
38693;SDS011;24447;43.460;25.744;2023-04-25T06:47:52;16.52;;;5.47;;
38693;SDS011;24447;43.460;25.744;2023-04-25T06:50:18;11.98;;;4.70;;
38693;SDS011;24447;43.460;25.744;2023-04-25T06:52:44;14.40;;;5.38;;
38693;SDS011;24447;43.460;25.744;2023-04-25T06:55:10;9.75;;;4.63;;
38693;SDS011;24447;43.460;25.744;2023-04-25T06:57:36;13.85;;;4.95;;
38693;SDS011;24447;43.460;25.744;2023-04-25T07:00:02;9.48;;;4.55;;
38693;SDS011;24447;43.460;25.744;2023-04-25T07:02:30;10.45;;;4.63;;
38693;SDS011;24447;43.460;25.744;2023-04-25T07:04:56;10.10;;;3.65;;
38693;SDS011;24447;43.460;25.744;2023-04-25T07:07:24;6.90;;;3.33;;
38693;SDS011;24447;43.460;25.744;2023-04-25T07:09:51;6.45;;;3.55;;
38693;SDS011;24447;43.460;25.744;2023-04-25T07:12:16;5.15;;;3.10;;
38693;SDS011;24447;43.460;25.744;2023-04-25T07:14:42;6.40;;;2.85;;
38693;SDS011;24447;43.460;25.744;2023-04-25T07:17:08;5.68;;;3.00;;
38693;SDS011;24447;43.460;25.744;2023-04-25T07:19:34;4.78;;;3.28;;
38693;SDS011;24447;43.460;25.744;2023-04-25T07:22:02;5.63;;;2.92;;
38693;SDS011;24447;43.460;25.744;2023-04-25T07:24:28;6.38;;;3.58;;
38693;SDS011;24447;43.460;25.744;2023-04-25T07:26:54;5.07;;;3.35;;
38693;SDS011;24447;43.460;25.744;2023-04-25T07:29:19;5.88;;;2.88;;
38693;SDS011;24447;43.460;25.744;2023-04-25T07:31:45;4.97;;;2.90;;
38693;SDS011;24447;43.460;25.744;2023-04-25T07:34:11;4.53;;;3.20;;
38693;SDS011;24447;43.460;25.744;2023-04-25T07:36:37;8.48;;;3.50;;
38693;SDS011;24447;43.460;25.744;2023-04-25T07:39:03;7.05;;;3.83;;
38693;SDS011;24447;43.460;25.744;2023-04-25T07:41:29;9.43;;;4.28;;
38693;SDS011;24447;43.460;25.744;2023-04-25T07:43:55;11.32;;;4.70;;
38693;SDS011;24447;43.460;25.744;2023-04-25T07:46:21;5.60;;;3.15;;
38693;SDS011;24447;43.460;25.744;2023-04-25T07:48:47;6.72;;;3.63;;
38693;SDS011;24447;43.460;25.744;2023-04-25T07:51:13;6.50;;;3.45;;
38693;SDS011;24447;43.460;25.744;2023-04-25T07:53:39;6.70;;;3.72;;
38693;SDS011;24447;43.460;25.744;2023-04-25T07:56:05;8.65;;;3.75;;
38693;SDS011;24447;43.460;25.744;2023-04-25T07:58:31;6.68;;;3.53;;
38693;SDS011;24447;43.460;25.744;2023-04-25T08:00:57;10.73;;;4.47;;
38693;SDS011;24447;43.460;25.744;2023-04-25T08:03:23;12.13;;;4.07;;
38693;SDS011;24447;43.460;25.744;2023-04-25T08:05:49;8.90;;;3.78;;
38693;SDS011;24447;43.460;25.744;2023-04-25T08:08:15;7.13;;;3.95;;
38693;SDS011;24447;43.460;25.744;2023-04-25T08:10:41;8.48;;;3.75;;
38693;SDS011;24447;43.460;25.744;2023-04-25T08:13:07;14.05;;;5.32;;
38693;SDS011;24447;43.460;25.744;2023-04-25T08:15:33;7.50;;;4.55;;
38693;SDS011;24447;43.460;25.744;2023-04-25T08:17:59;16.65;;;5.85;;
38693;SDS011;24447;43.460;25.744;2023-04-25T08:20:25;11.95;;;4.70;;
38693;SDS011;24447;43.460;25.744;2023-04-25T08:22:51;13.07;;;4.63;;
38693;SDS011;24447;43.460;25.744;2023-04-25T08:25:17;8.88;;;4.35;;
38693;SDS011;24447;43.460;25.744;2023-04-25T08:27:43;7.35;;;3.63;;
38693;SDS011;24447;43.460;25.744;2023-04-25T08:30:09;9.75;;;4.45;;
38693;SDS011;24447;43.460;25.744;2023-04-25T08:32:35;5.70;;;3.50;;
38693;SDS011;24447;43.460;25.744;2023-04-25T08:35:03;7.22;;;3.17;;
38693;SDS011;24447;43.460;25.744;2023-04-25T08:37:29;7.30;;;3.13;;
38693;SDS011;24447;43.460;25.744;2023-04-25T08:39:55;21.33;;;7.90;;
38693;SDS011;24447;43.460;25.744;2023-04-25T08:42:21;15.40;;;4.28;;
38693;SDS011;24447;43.460;25.744;2023-04-25T08:44:48;6.80;;;3.78;;
38693;SDS011;24447;43.460;25.744;2023-04-25T08:47:14;8.07;;;4.10;;
38693;SDS011;24447;43.460;25.744;2023-04-25T08:49:43;7.03;;;3.47;;
38693;SDS011;24447;43.460;25.744;2023-04-25T08:52:11;6.63;;;2.90;;
38693;SDS011;24447;43.460;25.744;2023-04-25T08:54:41;10.05;;;4.53;;
38693;SDS011;24447;43.460;25.744;2023-04-25T08:57:09;17.35;;;5.97;;
38693;SDS011;24447;43.460;25.744;2023-04-25T08:59:35;7.82;;;3.70;;
38693;SDS011;24447;43.460;25.744;2023-04-25T09:02:02;9.80;;;3.15;;
38693;SDS011;24447;43.460;25.744;2023-04-25T09:04:30;9.20;;;3.88;;
38693;SDS011;24447;43.460;25.744;2023-04-25T09:06:56;6.32;;;3.38;;
38693;SDS011;24447;43.460;25.744;2023-04-25T09:09:23;5.25;;;3.22;;
38693;SDS011;24447;43.460;25.744;2023-04-25T09:11:49;4.95;;;3.17;;
38693;SDS011;24447;43.460;25.744;2023-04-25T09:14:16;26.52;;;6.80;;
38693;SDS011;24447;43.460;25.744;2023-04-25T09:19:28;4.65;;;2.15;;
38693;SDS011;24447;43.460;25.744;2023-04-25T09:24:43;4.13;;;2.30;;
38693;SDS011;24447;43.460;25.744;2023-04-25T09:27:11;4.07;;;2.22;;
38693;SDS011;24447;43.460;25.744;2023-04-25T09:29:39;2.60;;;2.00;;
38693;SDS011;24447;43.460;25.744;2023-04-25T09:32:17;4.55;;;2.70;;
38693;SDS011;24447;43.460;25.744;2023-04-25T09:34:48;6.85;;;2.40;;
38693;SDS011;24447;43.460;25.744;2023-04-25T09:37:33;13.63;;;3.95;;
38693;SDS011;24447;43.460;25.744;2023-04-25T09:40:00;5.72;;;2.28;;
38693;SDS011;24447;43.460;25.744;2023-04-25T09:42:31;2.70;;;1.67;;
38693;SDS011;24447;43.460;25.744;2023-04-25T09:44:59;1.85;;;1.65;;
38693;SDS011;24447;43.460;25.744;2023-04-25T09:47:29;3.30;;;1.45;;
38693;SDS011;24447;43.460;25.744;2023-04-25T09:49:55;5.10;;;1.75;;
38693;SDS011;24447;43.460;25.744;2023-04-25T09:52:24;2.08;;;1.55;;
38693;SDS011;24447;43.460;25.744;2023-04-25T09:54:51;2.27;;;1.27;;
38693;SDS011;24447;43.460;25.744;2023-04-25T09:57:18;2.42;;;1.35;;
38693;SDS011;24447;43.460;25.744;2023-04-25T09:59:46;2.10;;;1.48;;
38693;SDS011;24447;43.460;25.744;2023-04-25T10:02:19;1.35;;;1.25;;
38693;SDS011;24447;43.460;25.744;2023-04-25T10:04:50;2.35;;;1.83;;
38693;SDS011;24447;43.460;25.744;2023-04-25T10:07:20;2.10;;;1.42;;
38693;SDS011;24447;43.460;25.744;2023-04-25T10:10:03;4.78;;;1.75;;
38693;SDS011;24447;43.460;25.744;2023-04-25T10:12:31;4.68;;;1.83;;
38693;SDS011;24447;43.460;25.744;2023-04-25T10:14:58;3.80;;;1.65;;
38693;SDS011;24447;43.460;25.744;2023-04-25T10:17:25;6.30;;;2.03;;
38693;SDS011;24447;43.460;25.744;2023-04-25T10:19:52;1.58;;;1.42;;
38693;SDS011;24447;43.460;25.744;2023-04-25T10:22:29;4.75;;;2.00;;
38693;SDS011;24447;43.460;25.744;2023-04-25T10:24:58;1.73;;;1.58;;
38693;SDS011;24447;43.460;25.744;2023-04-25T10:27:24;3.00;;;1.52;;
38693;SDS011;24447;43.460;25.744;2023-04-25T10:30:03;3.03;;;1.55;;
38693;SDS011;24447;43.460;25.744;2023-04-25T10:32:33;2.47;;;1.92;;
38693;SDS011;24447;43.460;25.744;2023-04-25T10:35:09;5.25;;;1.50;;
38693;SDS011;24447;43.460;25.744;2023-04-25T10:40:37;3.92;;;2.13;;
38693;SDS011;24447;43.460;25.744;2023-04-25T10:46:26;6.03;;;2.10;;
38693;SDS011;24447;43.460;25.744;2023-04-25T10:48:56;2.88;;;1.55;;
38693;SDS011;24447;43.460;25.744;2023-04-25T10:51:27;1.75;;;0.90;;
38693;SDS011;24447;43.460;25.744;2023-04-25T10:54:05;0.98;;;0.85;;
38693;SDS011;24447;43.460;25.744;2023-04-25T10:56:39;6.47;;;1.85;;
38693;SDS011;24447;43.460;25.744;2023-04-25T10:59:15;3.72;;;1.95;;
38693;SDS011;24447;43.460;25.744;2023-04-25T11:01:43;24.25;;;4.90;;
38693;SDS011;24447;43.460;25.744;2023-04-25T11:09:33;2.67;;;1.13;;
38693;SDS011;24447;43.460;25.744;2023-04-25T11:12:00;3.25;;;1.17;;
38693;SDS011;24447;43.460;25.744;2023-04-25T11:14:26;0.88;;;0.88;;
38693;SDS011;24447;43.460;25.744;2023-04-25T11:16:53;1.45;;;1.15;;
38693;SDS011;24447;43.460;25.744;2023-04-25T11:19:23;0.85;;;0.80;;
38693;SDS011;24447;43.460;25.744;2023-04-25T11:21:50;1.00;;;0.95;;
38693;SDS011;24447;43.460;25.744;2023-04-25T11:24:16;0.90;;;0.90;;
38693;SDS011;24447;43.460;25.744;2023-04-25T11:26:43;4.47;;;2.50;;
38693;SDS011;24447;43.460;25.744;2023-04-25T11:29:09;10.05;;;2.72;;
38693;SDS011;24447;43.460;25.744;2023-04-25T11:31:35;7.25;;;2.85;;
38693;SDS011;24447;43.460;25.744;2023-04-25T11:34:01;5.70;;;2.65;;
38693;SDS011;24447;43.460;25.744;2023-04-25T11:36:27;2.45;;;1.70;;
38693;SDS011;24447;43.460;25.744;2023-04-25T11:38:53;3.28;;;1.38;;
38693;SDS011;24447;43.460;25.744;2023-04-25T11:41:20;3.65;;;1.90;;
38693;SDS011;24447;43.460;25.744;2023-04-25T11:43:47;2.55;;;1.38;;
38693;SDS011;24447;43.460;25.744;2023-04-25T11:46:13;3.40;;;1.77;;
38693;SDS011;24447;43.460;25.744;2023-04-25T11:48:40;1.30;;;1.20;;
38693;SDS011;24447;43.460;25.744;2023-04-25T11:51:07;3.88;;;1.33;;
38693;SDS011;24447;43.460;25.744;2023-04-25T11:53:33;0.90;;;0.75;;
38693;SDS011;24447;43.460;25.744;2023-04-25T11:56:00;0.75;;;0.75;;
38693;SDS011;24447;43.460;25.744;2023-04-25T11:58:26;1.55;;;1.13;;
38693;SDS011;24447;43.460;25.744;2023-04-25T12:00:52;0.85;;;0.73;;
38693;SDS011;24447;43.460;25.744;2023-04-25T12:03:19;1.08;;;1.00;;
38693;SDS011;24447;43.460;25.744;2023-04-25T12:05:46;1.50;;;1.27;;
38693;SDS011;24447;43.460;25.744;2023-04-25T12:08:15;2.00;;;1.20;;
38693;SDS011;24447;43.460;25.744;2023-04-25T12:10:42;1.20;;;0.93;;
38693;SDS011;24447;43.460;25.744;2023-04-25T12:15:51;12.55;;;5.53;;
38693;SDS011;24447;43.460;25.744;2023-04-25T12:18:20;9.90;;;3.13;;
38693;SDS011;24447;43.460;25.744;2023-04-25T12:20:49;3.30;;;2.08;;
38693;SDS011;24447;43.460;25.744;2023-04-25T12:23:15;3.85;;;1.27;;
38693;SDS011;24447;43.460;25.744;2023-04-25T12:25:41;5.95;;;1.80;;
38693;SDS011;24447;43.460;25.744;2023-04-25T12:28:09;4.70;;;1.60;;
38693;SDS011;24447;43.460;25.744;2023-04-25T12:31:02;3.97;;;2.03;;
38693;SDS011;24447;43.460;25.744;2023-04-25T12:33:33;5.70;;;1.45;;
38693;SDS011;24447;43.460;25.744;2023-04-25T12:38:29;7.22;;;1.88;;
38693;SDS011;24447;43.460;25.744;2023-04-25T12:40:56;4.88;;;1.60;;
38693;SDS011;24447;43.460;25.744;2023-04-25T12:43:23;1.77;;;1.58;;
38693;SDS011;24447;43.460;25.744;2023-04-25T12:45:50;2.17;;;1.50;;
38693;SDS011;24447;43.460;25.744;2023-04-25T12:48:19;3.42;;;1.90;;
38693;SDS011;24447;43.460;25.744;2023-04-25T12:50:46;1.85;;;1.55;;
38693;SDS011;24447;43.460;25.744;2023-04-25T12:55:42;2.42;;;1.67;;
38693;SDS011;24447;43.460;25.744;2023-04-25T12:58:11;2.28;;;1.65;;
38693;SDS011;24447;43.460;25.744;2023-04-25T13:00:37;2.20;;;1.50;;
38693;SDS011;24447;43.460;25.744;2023-04-25T13:03:03;6.78;;;2.78;;
38693;SDS011;24447;43.460;25.744;2023-04-25T13:05:29;3.88;;;1.45;;
38693;SDS011;24447;43.460;25.744;2023-04-25T13:07:56;4.28;;;1.92;;
38693;SDS011;24447;43.460;25.744;2023-04-25T13:10:22;2.80;;;1.95;;
38693;SDS011;24447;43.460;25.744;2023-04-25T13:12:48;1.50;;;1.40;;
38693;SDS011;24447;43.460;25.744;2023-04-25T13:15:14;2.67;;;1.63;;
38693;SDS011;24447;43.460;25.744;2023-04-25T13:17:40;2.83;;;1.85;;
38693;SDS011;24447;43.460;25.744;2023-04-25T13:20:07;7.38;;;2.38;;
38693;SDS011;24447;43.460;25.744;2023-04-25T13:22:34;7.50;;;3.03;;
38693;SDS011;24447;43.460;25.744;2023-04-25T13:25:04;7.57;;;2.23;;
38693;SDS011;24447;43.460;25.744;2023-04-25T13:27:31;7.13;;;2.40;;
38693;SDS011;24447;43.460;25.744;2023-04-25T13:30:03;4.03;;;2.17;;
38693;SDS011;24447;43.460;25.744;2023-04-25T13:32:38;5.13;;;2.35;;
38693;SDS011;24447;43.460;25.744;2023-04-25T13:35:05;5.47;;;2.50;;
38693;SDS011;24447;43.460;25.744;2023-04-25T13:37:32;5.85;;;2.25;;
38693;SDS011;24447;43.460;25.744;2023-04-25T13:40:01;4.40;;;2.17;;
38693;SDS011;24447;43.460;25.744;2023-04-25T13:42:30;5.50;;;2.45;;
38693;SDS011;24447;43.460;25.744;2023-04-25T13:44:56;6.07;;;3.03;;
38693;SDS011;24447;43.460;25.744;2023-04-25T13:47:22;7.03;;;2.85;;
38693;SDS011;24447;43.460;25.744;2023-04-25T13:49:49;15.30;;;6.13;;
38693;SDS011;24447;43.460;25.744;2023-04-25T13:52:15;3.78;;;2.58;;
38693;SDS011;24447;43.460;25.744;2023-04-25T13:54:41;5.40;;;2.45;;
38693;SDS011;24447;43.460;25.744;2023-04-25T13:57:07;6.25;;;2.65;;
38693;SDS011;24447;43.460;25.744;2023-04-25T13:59:33;3.65;;;2.42;;
38693;SDS011;24447;43.460;25.744;2023-04-25T14:01:59;4.20;;;2.80;;
38693;SDS011;24447;43.460;25.744;2023-04-25T14:04:25;4.55;;;2.65;;
38693;SDS011;24447;43.460;25.744;2023-04-25T14:06:52;7.55;;;2.45;;
38693;SDS011;24447;43.460;25.744;2023-04-25T14:09:18;12.23;;;2.35;;
38693;SDS011;24447;43.460;25.744;2023-04-25T14:11:47;9.77;;;2.50;;
38693;SDS011;24447;43.460;25.744;2023-04-25T14:14:13;4.07;;;2.72;;
38693;SDS011;24447;43.460;25.744;2023-04-25T14:16:41;10.18;;;3.20;;
38693;SDS011;24447;43.460;25.744;2023-04-25T14:19:07;24.95;;;7.78;;
38693;SDS011;24447;43.460;25.744;2023-04-25T14:21:32;10.82;;;3.85;;
38693;SDS011;24447;43.460;25.744;2023-04-25T14:23:58;2.28;;;1.98;;
38693;SDS011;24447;43.460;25.744;2023-04-25T14:26:24;2.08;;;1.50;;
38693;SDS011;24447;43.460;25.744;2023-04-25T14:28:51;2.60;;;1.67;;
38693;SDS011;24447;43.460;25.744;2023-04-25T14:31:17;3.03;;;1.80;;
38693;SDS011;24447;43.460;25.744;2023-04-25T14:33:43;5.93;;;3.00;;
38693;SDS011;24447;43.460;25.744;2023-04-25T14:36:10;11.38;;;3.92;;
38693;SDS011;24447;43.460;25.744;2023-04-25T14:38:36;13.13;;;5.53;;
38693;SDS011;24447;43.460;25.744;2023-04-25T14:41:02;2.35;;;1.90;;
38693;SDS011;24447;43.460;25.744;2023-04-25T14:43:29;8.38;;;3.65;;
38693;SDS011;24447;43.460;25.744;2023-04-25T14:45:55;16.13;;;5.00;;
38693;SDS011;24447;43.460;25.744;2023-04-25T14:48:20;9.65;;;3.05;;
38693;SDS011;24447;43.460;25.744;2023-04-25T14:50:46;6.82;;;2.95;;